Airfield :
LOGIN :

Register | Disclaimer

   EN    FR    IT 

 










Legend :    VFR   Marginal VFR   IFR   Intensive IFR   Very Intensive IFR
Visi :
Ceiling :
>= 8 km
>= 3000ft
5 to 8 km
1000 to 3000 ft
1500m to 5 km
500 to 1000 ft
800 to 1500m
200 to 500 ft
< 800m
< 200 ft
Symbols :   Thunderstorms  Fog  Heavy snow  Heavy precipitations  Wind > 20 kt
SIGMETs :     Misc.  Thunderstorms  Icing  Turbulence  Mountain Waves  Volcanic Ashes






- Airport Elevation : 49 ft
- IATA code : GLZ


EHGR - Gilze-Rijen Airbase

CURRENT METAR :
  • 271025Z AUTO 24005KT 210V270 //// // BKN002 OVC003 04/03 Q1011 RE// TEMPO 2500 DZRA BKN003 OVC005

EXPIRED METARs :
  • 270955Z AUTO 22007KT 190V250 //// // OVC002 03/03 Q1010 RE// TEMPO 2500 DZRA BKN003 OVC005
  • 270925Z AUTO 22008KT 180V260 //// // BKN003 OVC004 03/03 Q1010 RE// TEMPO 2500 DZRA BKN003 OVC005
  • 270855Z AUTO 21008KT 190V250 //// // BKN003 OVC004 03/02 Q1010 RE// TEMPO 2500 DZRA BKN003 OVC005
  • 270825Z AUTO 22009KT 170V260 //// // SCT003 OVC004 02/02 Q1010 RE// TEMPO 2500 DZRA BKN003 OVC005
  • 270755Z AUTO 21009KT 170V250 //// // BKN003 OVC005 02/02 Q1010 RE// TEMPO 2500 DZRA BKN003 OVC005

Expired Forecast.



MET'MAP, your aeronautical weather chart ! - Copyright ORBIFLY December 2007 - Disclaimer

ORBIFLY MET'MAP TEAM :

Programming & Development : Alexandra Zaïnal
Concept & original design : Baudouin d'Aumeries
Assistance for programming : Marc-Olivier Méhu
Technical & hardware support : Manuel Goepfert

Contact : metmap@orbifly.com




SOURCES & CREDITS :

   NOAA